createdAt,value
2023-03-03T00:00:32.106Z,3.55
2023-03-03T00:02:35.997Z,2.92
2023-03-03T00:04:37.928Z,2.80
2023-03-03T00:06:39.844Z,2.60
2023-03-03T00:08:42.591Z,2.80
2023-03-03T00:10:45.413Z,3.15
2023-03-03T00:12:49.525Z,2.72
2023-03-03T00:14:51.902Z,2.53
2023-03-03T00:16:55.726Z,2.90
2023-03-03T00:18:58.036Z,2.97
2023-03-03T00:21:01.606Z,2.35
2023-03-03T00:23:09.881Z,3.08
2023-03-03T00:25:18.086Z,2.70
2023-03-03T00:27:24.527Z,2.97
2023-03-03T00:29:31.057Z,3.00
2023-03-03T00:31:35.022Z,3.33
2023-03-03T00:33:46.143Z,2.83
2023-03-03T00:35:48.124Z,2.65
2023-03-03T00:37:55.057Z,2.90
2023-03-03T00:40:03.814Z,2.45
2023-03-03T00:42:12.013Z,3.22
2023-03-03T00:44:26.736Z,2.83
2023-03-03T00:46:37.143Z,2.75
2023-03-03T00:48:42.064Z,3.08
2023-03-03T00:50:44.614Z,3.08
2023-03-03T00:52:55.146Z,2.83
2023-03-03T00:54:58.468Z,2.35
2023-03-03T00:57:00.428Z,2.38
2023-03-03T00:59:02.339Z,2.22
2023-03-03T01:01:04.816Z,2.83
2023-03-03T01:03:17.260Z,2.45
2023-03-03T01:05:19.904Z,2.20
2023-03-03T01:07:22.143Z,2.63
2023-03-03T01:09:24.353Z,2.40
2023-03-03T01:11:28.706Z,3.03
2023-03-03T01:13:37.920Z,2.60
2023-03-03T01:15:41.170Z,3.05
2023-03-03T01:17:43.412Z,2.90
2023-03-03T01:19:45.222Z,2.30
2023-03-03T01:21:47.178Z,2.70
2023-03-03T01:23:49.022Z,2.55
2023-03-03T01:25:53.225Z,3.63
2023-03-03T01:27:55.140Z,3.42
2023-03-03T01:29:57.673Z,2.28
2023-03-03T01:31:59.584Z,2.78
2023-03-03T01:34:01.502Z,2.35
2023-03-03T01:36:04.238Z,2.63
2023-03-03T01:38:08.513Z,2.03
2023-03-03T01:40:16.849Z,2.40
2023-03-03T01:42:19.680Z,2.75
2023-03-03T01:44:21.538Z,2.53
2023-03-03T01:46:25.168Z,2.50
2023-03-03T01:48:33.172Z,2.50
2023-03-03T01:50:41.190Z,3.13
2023-03-03T01:52:46.790Z,3.38
2023-03-03T01:54:55.616Z,2.65
2023-03-03T01:57:01.408Z,2.80
2023-03-03T01:59:09.763Z,2.65
2023-03-03T02:01:15.964Z,2.90
2023-03-03T02:03:22.586Z,3.20
2023-03-03T02:05:25.297Z,2.50
2023-03-03T02:07:29.126Z,3.08
2023-03-03T02:09:39.940Z,2.92
2023-03-03T02:13:46.340Z,2.47
2023-03-03T02:15:48.773Z,2.72
2023-03-03T02:17:54.971Z,3.15
2023-03-03T02:20:06.861Z,3.20
2023-03-03T02:22:08.840Z,2.78
2023-03-03T02:24:15.178Z,3.35
2023-03-03T02:26:22.783Z,3.00
2023-03-03T02:28:28.378Z,2.90
2023-03-03T02:30:37.164Z,3.25
2023-03-03T02:32:38.974Z,3.40
2023-03-03T02:34:46.703Z,2.90
2023-03-03T02:36:48.537Z,3.17
2023-03-03T02:38:53.965Z,3.10
2023-03-03T02:40:59.496Z,3.10
2023-03-03T02:43:04.250Z,3.53
2023-03-03T02:45:10.603Z,3.20
2023-03-03T02:47:12.439Z,3.13
2023-03-03T02:49:19.799Z,3.03
2023-03-03T02:51:23.895Z,2.78
2023-03-03T02:53:25.750Z,2.78
2023-03-03T02:55:29.954Z,3.13
2023-03-03T02:57:31.796Z,2.78
2023-03-03T02:59:33.628Z,2.90
2023-03-03T03:01:37.267Z,3.08
2023-03-03T03:03:39.617Z,2.65
2023-03-03T03:05:41.585Z,3.55
2023-03-03T03:07:43.437Z,3.00
2023-03-03T03:09:45.254Z,3.35
2023-03-03T03:11:47.157Z,3.17
2023-03-03T03:13:49.293Z,3.05
2023-03-03T03:15:51.532Z,3.60
2023-03-03T03:17:53.352Z,3.15
2023-03-03T03:19:55.176Z,2.70
2023-03-03T03:21:57.007Z,3.38
2023-03-03T03:23:59.208Z,3.30
2023-03-03T03:26:01.088Z,2.83
2023-03-03T03:28:03.119Z,3.70
2023-03-03T03:30:05.649Z,2.83
2023-03-03T03:32:07.577Z,3.50
2023-03-03T03:34:09.659Z,3.53
2023-03-03T03:36:11.889Z,3.20
2023-03-03T03:38:14.933Z,3.35
2023-03-03T03:40:16.889Z,2.75
2023-03-03T03:42:18.729Z,3.33
2023-03-03T03:44:20.621Z,3.20
2023-03-03T03:46:22.566Z,3.38
2023-03-03T03:48:24.468Z,2.92
2023-03-03T03:50:26.503Z,3.17
2023-03-03T03:52:28.423Z,3.17
2023-03-03T03:54:30.257Z,2.85
2023-03-03T03:56:32.077Z,3.00
2023-03-03T03:58:36.317Z,3.38
2023-03-03T04:00:41.189Z,3.00
2023-03-03T04:02:43.209Z,2.90
2023-03-03T04:04:45.289Z,2.63
2023-03-03T04:06:47.236Z,2.60
2023-03-03T04:08:49.105Z,2.42
2023-03-03T04:10:53.166Z,2.80
2023-03-03T04:12:55.353Z,2.55
2023-03-03T04:14:58.986Z,2.17
2023-03-03T04:17:00.895Z,2.65
2023-03-03T04:19:03.265Z,2.95
2023-03-03T04:21:06.002Z,2.58
2023-03-03T04:23:07.830Z,2.90
2023-03-03T04:25:15.925Z,2.33
2023-03-03T04:27:17.779Z,2.63
2023-03-03T04:29:19.641Z,2.80
2023-03-03T04:31:21.629Z,2.95
2023-03-03T04:33:23.477Z,2.50
2023-03-03T04:35:25.479Z,2.13
2023-03-03T04:37:27.427Z,2.20
2023-03-03T04:39:29.987Z,2.15
2023-03-03T04:41:31.932Z,2.60
2023-03-03T04:43:33.893Z,2.60
2023-03-03T04:45:35.891Z,2.72
2023-03-03T04:47:40.172Z,2.38
2023-03-03T04:49:42.053Z,2.38
2023-03-03T04:51:44.034Z,3.05
2023-03-03T04:53:45.887Z,2.83
2023-03-03T04:55:50.933Z,2.95
2023-03-03T04:57:52.871Z,2.75
2023-03-03T04:59:54.889Z,2.45
2023-03-03T05:01:56.783Z,2.60
2023-03-03T05:04:18.493Z,2.70
2023-03-03T05:06:20.712Z,2.67
2023-03-03T05:08:23.186Z,2.55
2023-03-03T05:10:25.118Z,2.70
2023-03-03T05:12:27.374Z,2.65
2023-03-03T05:14:29.183Z,2.60
2023-03-03T05:16:31.167Z,2.55
2023-03-03T05:18:33.065Z,2.33
2023-03-03T05:20:34.881Z,2.00
2023-03-03T05:22:36.658Z,2.30
2023-03-03T05:24:39.277Z,2.55
2023-03-03T05:26:43.188Z,2.13
2023-03-03T05:28:45.801Z,2.55
2023-03-03T05:30:50.376Z,2.50
2023-03-03T05:32:52.441Z,2.38
2023-03-03T05:34:54.928Z,2.30
2023-03-03T05:36:57.523Z,2.20
2023-03-03T05:38:59.961Z,2.05
2023-03-03T05:41:05.799Z,2.15
2023-03-03T05:43:08.435Z,2.33
2023-03-03T05:45:12.600Z,2.50
2023-03-03T05:47:16.380Z,1.90
2023-03-03T05:49:18.932Z,2.10
2023-03-03T05:51:20.933Z,2.20
2023-03-03T05:53:25.201Z,2.53
2023-03-03T05:55:27.502Z,1.95
2023-03-03T05:57:29.770Z,2.00
2023-03-03T05:59:31.804Z,2.60
2023-03-03T06:01:34.069Z,2.50
2023-03-03T06:03:36.113Z,2.20
2023-03-03T06:05:38.177Z,2.42
2023-03-03T06:07:40.881Z,1.98
2023-03-03T06:09:42.849Z,1.77
2023-03-03T06:11:45.066Z,2.03
2023-03-03T06:13:47.163Z,1.83
2023-03-03T06:15:49.216Z,1.73
2023-03-03T06:17:51.600Z,2.13
2023-03-03T06:19:53.770Z,2.03
2023-03-03T06:22:00.615Z,1.95
2023-03-03T06:24:03.548Z,2.20
2023-03-03T06:26:06.213Z,2.33
2023-03-03T06:28:09.375Z,1.75
2023-03-03T06:30:13.515Z,2.03
2023-03-03T06:32:18.141Z,2.47
2023-03-03T06:34:20.409Z,1.63
2023-03-03T06:36:23.825Z,1.85
2023-03-03T06:38:30.254Z,2.05
2023-03-03T06:40:37.024Z,2.58
2023-03-03T06:42:40.737Z,1.77
2023-03-03T06:44:42.459Z,1.83
2023-03-03T06:46:47.226Z,1.75
2023-03-03T06:48:53.117Z,1.63
2023-03-03T06:51:00.893Z,1.88
2023-03-03T06:53:15.484Z,2.05
2023-03-03T06:55:29.932Z,1.90
2023-03-03T06:57:35.622Z,1.58
2023-03-03T06:59:40.636Z,1.58
2023-03-03T07:01:44.705Z,1.42
2023-03-03T07:03:54.821Z,1.88
2023-03-03T07:06:01.067Z,2.28
2023-03-03T07:08:13.963Z,1.67
2023-03-03T07:10:25.242Z,1.60
2023-03-03T07:12:32.265Z,1.55
2023-03-03T07:15:03.522Z,1.17
2023-03-03T07:17:17.436Z,1.65
2023-03-03T07:19:33.576Z,1.33
2023-03-03T07:21:38.102Z,1.48
2023-03-03T07:23:42.900Z,1.77
2023-03-03T07:25:48.939Z,2.03
2023-03-03T07:27:52.019Z,1.50
2023-03-03T07:30:02.591Z,1.50
2023-03-03T07:32:35.380Z,1.88
2023-03-03T07:34:46.402Z,1.70
2023-03-03T07:37:01.174Z,1.70
2023-03-03T07:39:16.874Z,1.52
2023-03-03T07:41:34.111Z,1.88
2023-03-03T07:43:51.287Z,2.28
2023-03-03T07:46:14.493Z,1.60
2023-03-03T07:48:24.232Z,1.70
2023-03-03T07:50:27.950Z,2.05
2023-03-03T07:52:52.161Z,1.45
2023-03-03T07:55:31.152Z,2.03
2023-03-03T07:57:28.172Z,1.55
2023-03-03T07:59:30.792Z,1.77
2023-03-03T08:01:40.021Z,1.63
2023-03-03T08:03:46.945Z,2.47
2023-03-03T08:05:50.512Z,1.63
2023-03-03T08:07:52.915Z,2.00
2023-03-03T08:09:59.876Z,1.88
2023-03-03T08:12:08.133Z,2.30
2023-03-03T08:14:13.630Z,2.13
2023-03-03T08:16:16.740Z,1.95
2023-03-03T08:18:25.283Z,2.03
2023-03-03T08:20:39.415Z,2.10
2023-03-03T08:22:42.998Z,1.88
2023-03-03T08:24:45.441Z,1.88
2023-03-03T08:26:47.586Z,2.85
2023-03-03T08:28:50.613Z,2.58
2023-03-03T08:31:05.502Z,2.03
2023-03-03T08:33:08.693Z,2.10
2023-03-03T08:35:14.315Z,3.03
2023-03-03T08:37:16.421Z,2.45
2023-03-03T08:39:18.562Z,2.45
2023-03-03T08:41:20.883Z,2.35
2023-03-03T08:43:23.280Z,2.53
2023-03-03T08:45:33.585Z,2.20
2023-03-03T08:47:35.750Z,2.63
2023-03-03T08:49:37.960Z,2.00
2023-03-03T08:51:40.633Z,2.28
2023-03-03T08:53:42.955Z,2.80
2023-03-03T08:55:45.430Z,2.30
2023-03-03T08:57:47.756Z,2.50
2023-03-03T08:59:50.159Z,2.75
2023-03-03T09:01:52.610Z,2.40
2023-03-03T09:03:55.469Z,2.03
2023-03-03T09:05:57.860Z,2.28
2023-03-03T09:08:00.994Z,2.15
2023-03-03T09:10:04.573Z,2.20
2023-03-03T09:12:15.694Z,1.95
2023-03-03T09:14:20.835Z,2.08
2023-03-03T09:16:23.170Z,2.03
2023-03-03T09:18:32.567Z,1.88
2023-03-03T09:20:38.242Z,1.83
2023-03-03T09:22:40.447Z,2.47
2023-03-03T09:24:43.200Z,2.05
2023-03-03T09:26:47.531Z,1.80
2023-03-03T09:28:50.075Z,2.78
2023-03-03T09:30:53.756Z,2.30
2023-03-03T09:32:57.682Z,1.92
2023-03-03T09:35:09.021Z,1.95
2023-03-03T09:37:20.380Z,1.67
2023-03-03T09:39:25.607Z,1.80
2023-03-03T09:41:31.342Z,1.73
2023-03-03T09:43:42.218Z,1.98
2023-03-03T09:47:56.281Z,1.80
2023-03-03T09:50:10.724Z,1.55
2023-03-03T09:52:19.111Z,2.22
2023-03-03T09:54:24.892Z,1.90
2023-03-03T09:56:34.153Z,2.40
2023-03-03T09:58:45.895Z,2.05
2023-03-03T10:00:51.578Z,1.50
2023-03-03T10:02:57.980Z,1.70
2023-03-03T10:05:14.624Z,1.45
2023-03-03T10:07:20.323Z,1.90
2023-03-03T10:09:28.538Z,1.23
2023-03-03T10:11:40.204Z,1.40
2023-03-03T10:13:51.777Z,1.50
2023-03-03T10:15:58.448Z,1.15
2023-03-03T10:18:06.891Z,1.40
2023-03-03T10:20:10.736Z,1.50
2023-03-03T10:22:13.661Z,1.33
2023-03-03T10:24:22.097Z,1.23
2023-03-03T10:26:43.925Z,1.33
2023-03-03T10:28:58.880Z,1.63
2023-03-03T10:31:14.251Z,1.38
2023-03-03T10:33:24.453Z,1.40
2023-03-03T10:35:40.008Z,1.77
2023-03-03T10:37:46.660Z,1.00
2023-03-03T10:39:59.566Z,1.45
2023-03-03T10:42:04.514Z,1.13
2023-03-03T10:44:11.295Z,1.20
2023-03-03T10:46:26.387Z,1.60
2023-03-03T10:48:32.676Z,1.10
2023-03-03T10:50:46.069Z,1.30
2023-03-03T10:52:53.683Z,1.20
2023-03-03T10:55:00.263Z,1.90
2023-03-03T10:57:08.528Z,0.90
2023-03-03T10:59:14.135Z,0.80
2023-03-03T11:01:24.572Z,1.10
2023-03-03T11:03:33.326Z,1.10
2023-03-03T11:05:40.354Z,1.05
2023-03-03T11:07:47.338Z,1.25
2023-03-03T11:10:01.256Z,1.13
2023-03-03T11:12:12.954Z,1.30
2023-03-03T11:14:19.322Z,0.70
2023-03-03T11:16:33.480Z,1.13
2023-03-03T11:18:48.434Z,0.98
2023-03-03T11:20:55.769Z,0.90
2023-03-03T11:23:01.596Z,0.80
2023-03-03T11:25:13.572Z,0.88
2023-03-03T11:27:23.529Z,1.02
2023-03-03T11:29:34.282Z,0.63
2023-03-03T11:31:42.579Z,0.50
2023-03-03T11:33:51.570Z,0.70
2023-03-03T11:36:00.006Z,0.47
2023-03-03T11:38:08.304Z,0.43
2023-03-03T11:40:16.922Z,0.60
2023-03-03T11:42:25.305Z,0.55
2023-03-03T11:44:34.822Z,0.50
2023-03-03T11:46:45.235Z,0.35
2023-03-03T11:48:57.692Z,0.70
2023-03-03T11:51:06.434Z,0.60
2023-03-03T11:53:11.977Z,0.60
2023-03-03T11:55:34.922Z,0.60
2023-03-03T11:57:42.333Z,0.85
2023-03-03T11:59:54.065Z,0.80
2023-03-03T12:02:00.735Z,0.50
2023-03-03T12:04:04.814Z,0.70
2023-03-03T12:06:10.330Z,0.55
2023-03-03T12:08:24.053Z,0.50
2023-03-03T12:10:32.773Z,0.30
2023-03-03T12:12:43.272Z,0.40
2023-03-03T12:14:55.025Z,0.35
2023-03-03T12:17:01.661Z,0.30
2023-03-03T12:19:10.073Z,0.60
2023-03-03T12:21:15.632Z,0.40
2023-03-03T12:23:30.234Z,0.70
2023-03-03T12:25:44.695Z,0.50
2023-03-03T12:27:51.580Z,0.73
2023-03-03T12:30:05.184Z,0.75
2023-03-03T12:32:14.021Z,0.57
2023-03-03T12:34:23.504Z,0.60
2023-03-03T12:36:34.893Z,0.50
2023-03-03T12:38:49.450Z,0.43
2023-03-03T12:41:04.098Z,0.50
2023-03-03T12:43:12.560Z,0.63
2023-03-03T12:47:43.082Z,0.75
2023-03-03T12:50:06.534Z,0.80
2023-03-03T12:52:13.124Z,0.40
2023-03-03T12:54:23.237Z,0.40
2023-03-03T12:56:28.975Z,0.30
2023-03-03T12:58:40.065Z,0.40
2023-03-03T13:00:48.491Z,0.45
2023-03-03T13:03:01.359Z,0.32
2023-03-03T13:05:22.782Z,0.70
2023-03-03T13:07:35.968Z,0.35
2023-03-03T13:09:49.701Z,0.95
2023-03-03T13:12:02.108Z,0.70
2023-03-03T13:14:15.680Z,0.60
2023-03-03T13:16:41.156Z,0.70
2023-03-03T13:18:46.008Z,0.80
2023-03-03T13:20:55.900Z,0.93
2023-03-03T13:23:01.684Z,0.63
2023-03-03T13:25:24.866Z,0.80
2023-03-03T13:27:38.005Z,0.70
2023-03-03T13:29:43.748Z,1.35
2023-03-03T13:31:50.867Z,1.10
2023-03-03T13:33:56.835Z,0.93
2023-03-03T13:36:04.060Z,1.60
2023-03-03T13:38:10.336Z,1.30
2023-03-03T13:40:17.420Z,1.08
2023-03-03T13:42:24.626Z,1.17
2023-03-03T13:44:35.986Z,0.90
2023-03-03T13:46:46.213Z,1.70
2023-03-03T13:48:57.119Z,1.23
2023-03-03T13:51:05.632Z,0.70
2023-03-03T13:53:12.174Z,1.60
2023-03-03T13:55:31.608Z,0.93
2023-03-03T13:57:40.132Z,0.73
2023-03-03T13:59:45.853Z,0.80
2023-03-03T14:01:51.894Z,0.80
2023-03-03T14:04:00.123Z,0.50
2023-03-03T14:06:09.200Z,0.57
2023-03-03T14:08:14.332Z,0.70
2023-03-03T14:10:22.597Z,1.10
2023-03-03T14:12:35.039Z,0.70
2023-03-03T14:14:41.720Z,1.60
2023-03-03T14:16:47.503Z,1.15
2023-03-03T14:18:55.608Z,1.15
2023-03-03T14:21:08.236Z,1.02
2023-03-03T14:23:19.517Z,0.80
2023-03-03T14:25:22.061Z,0.77
2023-03-03T14:27:27.190Z,0.50
2023-03-03T14:29:31.294Z,0.60
2023-03-03T14:31:39.755Z,0.47
2023-03-03T14:33:47.880Z,0.40
2023-03-03T14:35:56.431Z,0.60
2023-03-03T14:38:02.660Z,0.45
2023-03-03T14:40:10.913Z,0.50
2023-03-03T14:42:15.977Z,0.63
2023-03-03T14:44:24.523Z,0.70
2023-03-03T14:46:29.633Z,0.57
2023-03-03T14:48:32.812Z,0.60
2023-03-03T14:50:39.938Z,0.60
2023-03-03T14:52:42.871Z,0.60
2023-03-03T14:54:51.132Z,0.60
2023-03-03T14:57:00.568Z,0.50
2023-03-03T14:59:08.919Z,0.55
2023-03-03T15:01:17.503Z,0.60
2023-03-03T15:03:23.538Z,0.65
2023-03-03T15:07:52.485Z,0.50
2023-03-03T15:09:55.122Z,0.50
2023-03-03T15:11:59.474Z,0.40
2023-03-03T15:14:12.692Z,0.43
2023-03-03T15:16:20.493Z,0.30
2023-03-03T15:18:22.915Z,0.60
2023-03-03T15:20:33.784Z,0.55
2023-03-03T15:24:57.052Z,0.60
2023-03-03T15:27:05.760Z,0.60
2023-03-03T15:29:18.014Z,0.45
2023-03-03T15:31:24.730Z,0.40
2023-03-03T15:33:31.220Z,0.60
2023-03-03T15:35:58.043Z,0.70
2023-03-03T15:38:04.436Z,0.88
2023-03-03T15:40:10.320Z,0.50
2023-03-03T15:42:19.046Z,0.65
2023-03-03T15:44:32.260Z,0.40
2023-03-03T15:46:46.305Z,0.50
2023-03-03T15:48:54.479Z,0.30
2023-03-03T15:51:03.052Z,0.32
2023-03-03T15:53:08.635Z,0.45
2023-03-03T15:55:18.481Z,0.68
2023-03-03T15:57:26.816Z,0.50
2023-03-03T15:59:42.521Z,0.60
2023-03-03T16:01:56.277Z,0.52
2023-03-03T16:04:04.057Z,0.40
2023-03-03T16:06:10.551Z,0.60
2023-03-03T16:08:19.793Z,0.40
2023-03-03T16:10:28.947Z,0.52
2023-03-03T16:12:36.346Z,0.50
2023-03-03T16:14:43.847Z,0.90
2023-03-03T16:16:54.816Z,0.85
2023-03-03T16:19:05.234Z,1.08
2023-03-03T16:21:18.531Z,1.17
2023-03-03T16:23:25.364Z,0.93
2023-03-03T16:25:43.688Z,0.80
2023-03-03T16:27:47.540Z,0.68
2023-03-03T16:30:04.513Z,1.00
2023-03-03T16:32:12.268Z,0.52
2023-03-03T16:34:26.041Z,0.63
2023-03-03T16:36:29.194Z,0.50
2023-03-03T16:38:37.847Z,0.60
2023-03-03T16:40:44.565Z,0.47
2023-03-03T16:42:50.258Z,0.55
2023-03-03T16:44:57.501Z,0.70
2023-03-03T16:47:18.197Z,0.63
2023-03-03T16:49:23.966Z,0.60
2023-03-03T16:51:32.365Z,0.70
2023-03-03T16:53:39.341Z,0.70
2023-03-03T16:55:47.813Z,0.73
2023-03-03T16:57:53.479Z,0.70
2023-03-03T17:00:06.699Z,0.68
2023-03-03T17:02:19.285Z,0.60
2023-03-03T17:04:32.522Z,0.50
2023-03-03T17:06:38.273Z,0.40
2023-03-03T17:08:52.520Z,0.60
2023-03-03T17:11:00.875Z,0.60
2023-03-03T17:13:07.434Z,1.45
2023-03-03T17:15:20.541Z,0.65
2023-03-03T17:17:26.097Z,0.70
2023-03-03T17:19:40.508Z,0.60
2023-03-03T17:21:49.126Z,0.47
2023-03-03T17:24:04.727Z,0.80
2023-03-03T17:26:13.693Z,0.98
2023-03-03T17:28:19.547Z,1.20
2023-03-03T17:30:28.857Z,0.93
2023-03-03T17:32:37.209Z,1.10
2023-03-03T17:34:42.238Z,1.13
2023-03-03T17:36:48.990Z,1.00
2023-03-03T17:38:55.677Z,0.63
2023-03-03T17:41:03.915Z,0.80
2023-03-03T17:43:09.473Z,1.10
2023-03-03T17:45:29.413Z,1.38
2023-03-03T17:47:36.119Z,0.93
2023-03-03T17:49:41.920Z,0.90
2023-03-03T17:51:58.671Z,0.88
2023-03-03T17:54:11.031Z,0.95
2023-03-03T17:56:19.577Z,0.98
2023-03-03T17:58:34.252Z,1.50
2023-03-03T18:00:42.850Z,1.17
2023-03-03T18:02:51.533Z,0.93
2023-03-03T18:05:16.616Z,1.13
2023-03-03T18:07:31.098Z,0.90
2023-03-03T18:09:44.694Z,1.17
2023-03-03T18:11:51.468Z,0.82
2023-03-03T18:13:58.095Z,0.75
2023-03-03T18:16:12.141Z,0.82
2023-03-03T18:18:20.780Z,0.60
2023-03-03T18:20:26.717Z,0.75
2023-03-03T18:22:32.738Z,0.70
2023-03-03T18:24:38.726Z,0.63
2023-03-03T18:26:42.287Z,0.93
2023-03-03T18:28:49.788Z,1.05
2023-03-03T18:30:57.663Z,1.38
2023-03-03T18:33:06.516Z,1.42
2023-03-03T18:35:25.447Z,1.20
2023-03-03T18:37:31.720Z,1.23
2023-03-03T18:39:41.234Z,1.23
2023-03-03T18:41:49.478Z,1.20
2023-03-03T18:43:57.899Z,1.33
2023-03-03T18:46:00.309Z,1.50
2023-03-03T18:48:08.641Z,1.13
2023-03-03T18:50:16.763Z,1.30
2023-03-03T18:52:23.382Z,1.65
2023-03-03T18:54:31.439Z,1.60
2023-03-03T18:56:43.483Z,1.48
2023-03-03T18:58:45.666Z,1.67
2023-03-03T19:00:52.847Z,1.70
2023-03-03T19:02:57.748Z,1.70
2023-03-03T19:05:26.431Z,2.05
2023-03-03T19:07:44.051Z,1.63
2023-03-03T19:09:52.753Z,1.98
2023-03-03T19:11:56.929Z,1.90
2023-03-03T19:14:05.158Z,2.08
2023-03-03T19:16:11.551Z,2.60
2023-03-03T19:18:20.240Z,2.45
2023-03-03T19:20:24.378Z,2.17
2023-03-03T19:22:30.142Z,2.20
2023-03-03T19:24:34.882Z,2.58
2023-03-03T19:26:47.234Z,2.22
2023-03-03T19:28:58.917Z,2.30
2023-03-03T19:31:05.106Z,2.42
2023-03-03T19:33:13.128Z,2.42
2023-03-03T19:35:21.694Z,2.92
2023-03-03T19:39:50.358Z,1.90
2023-03-03T19:41:55.912Z,2.15
2023-03-03T19:44:06.583Z,1.92
2023-03-03T19:46:12.336Z,2.58
2023-03-03T19:48:19.759Z,2.10
2023-03-03T19:50:26.512Z,2.05
2023-03-03T19:52:38.410Z,2.83
2023-03-03T19:54:44.476Z,2.53
2023-03-03T19:56:48.754Z,2.88
2023-03-03T19:59:02.242Z,4.47
2023-03-03T20:01:08.988Z,3.05
2023-03-03T20:03:37.075Z,2.97
2023-03-03T20:05:47.194Z,3.25
2023-03-03T20:07:58.926Z,2.10
2023-03-03T20:10:11.637Z,2.45
2023-03-03T20:12:17.285Z,2.13
2023-03-03T20:14:21.157Z,2.10
2023-03-03T20:16:40.936Z,2.78
2023-03-03T20:18:58.950Z,1.85
2023-03-03T20:21:02.878Z,2.03
2023-03-03T20:23:06.051Z,2.08
2023-03-03T20:25:14.861Z,2.20
2023-03-03T20:27:23.601Z,1.83
2023-03-03T20:29:34.618Z,1.73
2023-03-03T20:31:41.288Z,1.75
2023-03-03T20:33:48.352Z,1.58
2023-03-03T20:35:58.974Z,2.58
2023-03-03T20:38:08.572Z,2.22
2023-03-03T20:40:20.509Z,2.65
2023-03-03T20:42:25.448Z,2.28
2023-03-03T20:44:34.021Z,1.92
2023-03-03T20:46:39.773Z,1.52
2023-03-03T20:48:44.846Z,1.92
2023-03-03T20:50:59.753Z,1.58
2023-03-03T20:53:08.375Z,1.50
2023-03-03T20:55:19.709Z,2.22
2023-03-03T20:57:34.112Z,2.25
2023-03-03T20:59:44.498Z,1.80
2023-03-03T21:01:58.367Z,1.95
2023-03-03T21:04:06.924Z,1.23
2023-03-03T21:06:15.399Z,1.88
2023-03-03T21:08:17.753Z,2.25
2023-03-03T21:10:26.754Z,1.45
2023-03-03T21:12:32.409Z,2.28
2023-03-03T21:14:36.855Z,2.00
2023-03-03T21:16:42.466Z,2.55
2023-03-03T21:19:00.300Z,2.17
2023-03-03T21:21:04.694Z,2.20
2023-03-03T21:23:12.747Z,2.13
2023-03-03T21:25:22.634Z,1.83
2023-03-03T21:29:34.661Z,1.85
2023-03-03T21:31:44.711Z,2.05
2023-03-03T21:33:53.863Z,1.80
2023-03-03T21:35:59.424Z,1.80
2023-03-03T21:38:01.928Z,2.22
2023-03-03T21:40:10.073Z,1.45
2023-03-03T21:42:14.661Z,1.58
2023-03-03T21:44:23.096Z,1.63
2023-03-03T21:46:25.690Z,2.25
2023-03-03T21:48:27.762Z,1.38
2023-03-03T21:50:32.807Z,1.40
2023-03-03T21:52:35.026Z,2.17
2023-03-03T21:54:37.065Z,2.08
2023-03-03T21:56:41.908Z,1.75
2023-03-03T21:58:44.274Z,1.45
2023-03-03T22:00:46.309Z,2.08
2023-03-03T22:02:48.463Z,1.67
2023-03-03T22:04:50.635Z,2.30
2023-03-03T22:06:52.982Z,2.40
2023-03-03T22:08:55.073Z,1.52
2023-03-03T22:10:57.119Z,1.70
2023-03-03T22:12:59.231Z,1.67
2023-03-03T22:15:04.235Z,2.25
2023-03-03T22:17:06.290Z,1.67
2023-03-03T22:19:10.184Z,1.98
2023-03-03T22:21:12.178Z,1.27
2023-03-03T22:23:15.846Z,1.13
2023-03-03T22:25:18.032Z,1.55
2023-03-03T22:27:20.293Z,1.63
2023-03-03T22:29:23.216Z,1.33
2023-03-03T22:31:25.435Z,1.50
2023-03-03T22:33:27.599Z,1.90
2023-03-03T22:35:29.737Z,1.60
2023-03-03T22:37:31.959Z,1.20
2023-03-03T22:39:34.602Z,1.95
2023-03-03T22:41:36.784Z,1.20
2023-03-03T22:43:39.001Z,1.85
2023-03-03T22:45:41.167Z,1.58
2023-03-03T22:47:43.253Z,1.63
2023-03-03T22:49:45.452Z,1.50
2023-03-03T22:51:47.488Z,1.30
2023-03-03T22:53:49.587Z,1.48
2023-03-03T22:55:52.084Z,1.50
2023-03-03T22:57:54.165Z,2.15
2023-03-03T22:59:56.297Z,1.90
2023-03-03T23:01:58.522Z,1.00
2023-03-03T23:04:00.503Z,1.40
2023-03-03T23:06:02.485Z,1.67
2023-03-03T23:08:07.089Z,1.38
2023-03-03T23:10:11.203Z,1.23
2023-03-03T23:12:13.292Z,1.52
2023-03-03T23:14:15.477Z,1.30
2023-03-03T23:16:19.563Z,1.48
2023-03-03T23:18:21.562Z,1.38
2023-03-03T23:20:28.743Z,1.55
2023-03-03T23:22:31.692Z,1.08
2023-03-03T23:24:35.985Z,1.70
2023-03-03T23:26:39.721Z,1.30
2023-03-03T23:28:41.711Z,0.80
2023-03-03T23:30:44.167Z,1.40
2023-03-03T23:32:48.410Z,1.13
2023-03-03T23:35:04.530Z,1.10
2023-03-03T23:37:06.946Z,1.20
2023-03-03T23:39:09.823Z,1.17
2023-03-03T23:41:11.964Z,0.98
2023-03-03T23:43:15.257Z,0.90
2023-03-03T23:45:18.113Z,1.25
2023-03-03T23:47:20.339Z,0.98
2023-03-03T23:49:27.358Z,1.30
2023-03-03T23:51:29.474Z,1.02
2023-03-03T23:53:31.725Z,1.00
2023-03-03T23:55:34.153Z,0.90
2023-03-03T23:57:36.206Z,1.00
2023-03-03T23:59:38.285Z,0.70
